Time;durP1;ratioP1;P1;durP2;ratioP2;P2;SDS_P1;SDS_P2;PMS_P1;PMS_P2;Temp;Humidity;BMP_temperature;BMP_pressure;BME280_temperature;BME280_humidity;BME280_pressure;Samples;Min_cycle;Max_cycle;Signal;HPM_P1;HPM_P2
2024/04/02 00:00:35;;;;;;;7.03;4.70;;;10.40;99.90;;;9.11;100.00;99155.19;5004158;28;20014;-82
2024/04/02 00:03:16;;;;;;;7.03;4.95;;;10.40;99.90;;;9.16;100.00;99145.22;4987411;28;20519;-82
2024/04/02 00:05:45;;;;;;;8.13;4.90;;;10.40;99.90;;;9.20;100.00;99144.06;4992938;28;20035;-82
2024/04/02 00:08:17;;;;;;;7.70;4.75;;;10.40;99.90;;;9.17;100.00;99153.00;5041535;23;20179;-83
2024/04/02 00:10:48;;;;;;;7.82;4.65;;;10.40;99.90;;;9.17;100.00;99155.63;5044758;28;20042;-82
2024/04/02 00:13:24;;;;;;;6.72;5.00;;;10.50;99.90;;;9.20;100.00;99152.81;5055830;28;20060;-81
2024/04/02 00:16:14;;;;;;;9.00;5.80;;;10.50;99.90;;;9.17;100.00;99152.16;5047116;28;20025;-82
2024/04/02 00:18:48;;;;;;;7.30;5.50;;;10.40;99.90;;;9.11;100.00;99156.00;5025862;28;20050;-83
2024/04/02 00:21:27;;;;;;;8.43;6.80;;;10.40;99.90;;;9.15;100.00;99168.00;5045707;28;20032;-82
2024/04/02 00:24:16;;;;;;;7.57;5.43;;;10.50;99.90;;;9.14;100.00;99166.34;5044496;28;20040;-83
2024/04/02 00:26:48;;;;;;;9.43;7.25;;;10.50;99.90;;;9.18;100.00;99154.69;5038417;28;20037;-83
2024/04/02 00:29:48;;;;;;;;;;;;;;;;;;;;;
2024/04/02 00:35:27;;;;;;;10.88;7.25;;;10.40;99.90;;;9.17;100.00;99163.50;4986248;28;20510;-83
2024/04/02 00:37:58;;;;;;;11.35;7.75;;;10.50;99.90;;;9.22;100.00;99173.69;4977649;28;20043;-83
2024/04/02 00:40:46;;;;;;;9.32;6.38;;;10.50;99.90;;;9.22;100.00;99163.19;4953650;28;20417;-84
2024/04/02 00:43:15;;;;;;;11.23;6.93;;;10.50;99.90;;;9.23;100.00;99165.72;4966480;28;20045;-81
2024/04/02 00:45:44;;;;;;;10.38;6.68;;;10.50;99.90;;;9.29;100.00;99176.75;4966310;28;20062;-82
2024/04/02 00:48:19;;;;;;;11.18;6.53;;;10.50;99.90;;;9.27;100.00;99176.03;5013062;23;20049;-83
2024/04/02 00:50:47;;;;;;;10.15;6.15;;;10.50;99.90;;;9.29;100.00;99187.25;5052708;28;20032;-82
2024/04/02 00:53:55;;;;;;;10.80;6.80;;;10.60;99.90;;;9.29;100.00;99176.75;5066400;28;20107;-83
2024/04/02 00:56:04;;;;;;;11.65;6.95;;;;;;;9.31;100.00;99175.72;5063619;28;20048;-83
2024/04/02 00:58:56;;;;;;;10.65;6.88;;;10.60;99.90;;;9.30;100.00;99167.94;5048814;28;20029;-82
2024/04/02 01:02:18;;;;;;;;;;;;;;;;;;;;;
2024/04/02 01:05:05;;;;;;;;;;;;;;;;;;;;;
2024/04/02 01:07:44;;;;;;;12.70;7.70;;;10.50;99.90;;;9.21;100.00;99188.63;5050460;22;20109;-82
2024/04/02 01:13:07;;;;;;;16.35;7.57;;;10.40;99.90;;;9.15;100.00;99196.06;4976216;28;20087;-83
2024/04/02 01:15:35;;;;;;;15.27;8.30;;;10.40;99.90;;;9.13;100.00;99196.16;4980294;28;20062;-83
2024/04/02 01:18:28;;;;;;;13.50;8.15;;;10.40;99.90;;;9.15;100.00;99189.00;4973903;28;20421;-82
2024/04/02 01:20:56;;;;;;;17.48;8.23;;;10.40;99.90;;;9.19;100.00;99181.78;4958343;28;20782;-83
2024/04/02 01:23:35;;;;;;;9.98;6.38;;;;;;;9.21;100.00;99191.25;4957323;28;20042;-84
2024/04/02 01:26:15;;;;;;;15.85;7.78;;;10.50;99.90;;;9.21;100.00;99208.78;4961944;28;20043;-83
2024/04/02 01:28:57;;;;;;;12.88;7.75;;;10.50;99.90;;;9.20;100.00;99201.84;5028132;23;20052;-84
2024/04/02 01:31:35;;;;;;;12.50;7.30;;;;;;;9.16;100.00;99206.47;5032119;28;20077;-86
2024/04/02 01:34:14;;;;;;;12.50;7.22;;;10.50;99.90;;;9.19;100.00;99215.94;5030452;28;20042;-83
2024/04/02 01:37:06;;;;;;;12.07;7.40;;;10.50;99.90;;;9.17;100.00;99221.25;5032569;28;20045;-83
2024/04/02 01:39:35;;;;;;;14.25;7.50;;;10.40;99.90;;;9.18;100.00;99211.63;4961073;28;20109;-84
2024/04/02 01:42:19;;;;;;;;;;;;;;;;;;;;;
2024/04/02 01:44:48;;;;;;;13.45;7.57;;;10.50;99.90;;;9.26;100.00;99219.81;4977039;28;20146;-83
2024/04/02 01:47:17;;;;;;;12.82;7.88;;;10.50;99.90;;;9.29;100.00;99214.38;4996642;22;20123;-83
2024/04/02 01:50:16;;;;;;;13.77;8.07;;;10.50;99.90;;;9.20;100.00;99220.22;5051047;28;20124;-82
2024/04/02 01:53:05;;;;;;;13.30;7.85;;;10.50;99.90;;;9.30;100.00;99215.22;5039190;28;20029;-83
2024/04/02 01:55:36;;;;;;;15.68;8.18;;;10.50;99.90;;;9.28;100.00;99227.63;5004722;28;20050;-82
2024/04/02 01:58:08;;;;;;;12.82;7.82;;;10.60;99.90;;;9.30;100.00;99223.94;4993985;28;20088;-83
2024/04/02 02:00:34;;;;;;;18.13;8.07;;;10.50;99.90;;;9.27;100.00;99218.91;4977982;28;20039;-82
2024/04/02 02:03:26;;;;;;;17.92;8.55;;;10.50;99.90;;;9.29;100.00;99213.53;5003183;28;20049;-83
2024/04/02 02:05:57;;;;;;;13.85;7.75;;;10.60;99.90;;;9.28;100.00;99215.31;4996303;28;20058;-83
2024/04/02 02:08:34;;;;;;;12.40;6.53;;;10.60;99.90;;;9.31;100.00;99211.66;5031380;22;20084;-83
2024/04/02 02:14:39;;;;;;;;;;;;;;;;;;;;;
2024/04/02 02:17:08;;;;;;;14.45;7.70;;;10.60;99.90;;;9.34;100.00;99221.97;4958847;28;20114;-83
2024/04/02 02:19:37;;;;;;;17.63;7.18;;;10.60;99.90;;;9.36;100.00;99213.03;4941754;28;20048;-82
2024/04/02 02:22:13;;;;;;;14.15;7.53;;;10.60;99.90;;;9.40;100.00;99218.94;4956722;28;20047;-83
2024/04/02 02:24:48;;;;;;;14.85;7.93;;;10.60;99.90;;;9.40;100.00;99211.06;4942549;28;20062;-83
2024/04/02 02:27:18;;;;;;;11.52;6.97;;;10.60;99.90;;;9.39;100.00;99214.63;4956980;28;20039;-82
2024/04/02 02:29:55;;;;;;;12.38;6.95;;;10.60;99.90;;;9.42;100.00;99219.69;4955610;28;20454;-82
2024/04/02 02:32:30;;;;;;;12.95;7.15;;;10.60;99.90;;;9.39;100.00;99220.69;4955177;28;20050;-82
2024/04/02 02:35:02;;;;;;;13.10;6.53;;;10.70;99.90;;;9.40;100.00;99217.16;4955845;28;20095;-83
2024/04/02 02:37:28;;;;;;;14.18;7.22;;;10.60;99.90;;;9.41;100.00;99224.06;4940662;29;20725;-83
2024/04/02 02:40:07;;;;;;;16.45;7.63;;;10.60;99.90;;;9.40;100.00;99232.06;4955677;28;20042;-83
2024/04/02 02:43:04;;;;;;;15.43;7.13;;;10.70;99.90;;;9.36;100.00;99218.28;4941950;29;20113;-82
2024/04/02 02:45:52;;;;;;;14.13;8.30;;;;;;;9.38;100.00;99220.81;4957337;28;20063;-83
2024/04/02 02:48:24;;;;;;;16.33;8.07;;;10.60;99.90;;;9.42;100.00;99241.53;4955795;28;20083;-82
2024/04/02 02:50:57;;;;;;;15.35;7.53;;;10.70;99.90;;;9.43;100.00;99237.13;4962251;28;20035;-83
2024/04/02 02:53:25;;;;;;;16.27;8.00;;;10.70;99.90;;;9.41;100.00;99237.22;5013482;28;20045;-83
2024/04/02 02:56:09;;;;;;;18.63;7.88;;;10.70;99.90;;;9.41;100.00;99239.84;5058269;28;20052;-81
2024/04/02 02:58:58;;;;;;;13.02;7.35;;;10.70;99.90;;;9.39;100.00;99233.84;5039962;28;20041;-84
2024/04/02 03:01:24;;;;;;;18.95;8.40;;;10.60;99.90;;;9.40;100.00;99239.97;5059144;28;20021;-83
2024/04/02 03:04:04;;;;;;;17.80;7.60;;;10.60;99.90;;;9.38;100.00;99239.22;5056299;28;20132;-83
2024/04/02 03:07:14;;;;;;;18.73;7.85;;;10.70;99.90;;;9.39;100.00;99244.34;5057542;28;20040;-82
2024/04/02 03:09:55;;;;;;;17.77;8.48;;;10.60;99.90;;;9.36;100.00;99234.06;5048149;28;20045;-83
2024/04/02 03:12:36;;;;;;;14.05;7.43;;;10.60;99.90;;;9.33;100.00;99251.78;5054863;28;20136;-82
2024/04/02 03:15:05;;;;;;;16.67;8.05;;;10.60;99.90;;;9.27;100.00;99241.69;5041909;28;20043;-83
2024/04/02 03:17:55;;;;;;;15.43;8.48;;;10.50;99.90;;;9.28;100.00;99241.59;5040341;28;20711;-82
2024/04/02 03:20:31;;;;;;;17.98;8.18;;;10.50;99.90;;;9.29;100.00;99234.53;5056349;28;20029;-82
2024/04/02 03:23:05;;;;;;;;;;;10.50;99.90;;;9.20;100.00;99234.22;5041645;28;20111;-83
2024/04/02 03:25:44;;;;;;;14.48;7.88;;;;;;;9.19;100.00;99232.50;5058274;28;19916;-83
2024/04/02 03:31:19;;;;;;;18.13;7.82;;;10.40;99.90;;;9.13;100.00;99230.28;5016832;28;20097;-83
2024/04/02 03:33:57;;;;;;;12.50;7.38;;;10.40;99.90;;;9.09;100.00;99223.53;5017475;28;20057;-82
2024/04/02 03:36:23;;;;;;;13.95;7.75;;;10.40;99.90;;;9.12;100.00;99228.63;5014930;28;20695;-83
2024/04/02 03:38:54;;;;;;;12.07;7.30;;;10.40;99.90;;;9.08;100.00;99232.38;4998610;28;20029;-83
2024/04/02 03:41:25;;;;;;;16.35;8.10;;;10.40;99.90;;;9.08;100.00;99232.38;5015151;28;20038;-82
2024/04/02 03:44:17;;;;;;;19.58;7.57;;;10.40;99.90;;;9.09;100.00;99248.97;5013796;28;20057;-82
2024/04/02 03:46:43;;;;;;;17.85;6.90;;;10.30;99.90;;;9.07;100.00;99242.97;5004263;28;20046;-82
2024/04/02 03:49:09;;;;;;;11.68;5.30;;;10.30;99.90;;;8.97;100.00;99238.31;5013267;28;20041;-83
2024/04/02 03:51:35;;;;;;;15.07;5.70;;;10.30;99.90;;;8.93;100.00;99239.44;5015234;28;20080;-81
2024/04/02 03:54:07;;;;;;;12.40;6.65;;;10.30;99.90;;;9.00;100.00;99253.84;5015361;28;20037;-83
2024/04/02 03:56:36;;;;;;;15.10;7.43;;;10.30;99.90;;;8.99;100.00;99248.72;4997230;28;20041;-83
2024/04/02 03:59:04;;;;;;;13.43;6.38;;;10.30;99.90;;;8.99;100.00;99257.44;5000984;28;20069;-83
2024/04/02 04:02:07;;;;;;;15.50;6.43;;;10.30;99.90;;;8.96;100.00;99262.03;5017306;28;20528;-82
2024/04/02 04:05:07;;;;;;;12.95;6.68;;;10.30;99.90;;;8.99;100.00;99253.97;4988576;28;20049;-83
2024/04/02 04:07:18;;;;;;;16.25;6.80;;;10.20;99.90;;;8.91;100.00;99259.69;5003663;28;20045;-83
2024/04/02 04:09:52;;;;;;;12.27;5.70;;;10.20;99.90;;;8.91;100.00;99271.97;5037755;28;20044;-84
2024/04/02 04:12:17;;;;;;;15.23;6.38;;;10.20;99.90;;;8.91;100.00;99277.22;5035251;28;20104;-82
2024/04/02 04:14:49;;;;;;;14.30;6.25;;;10.20;99.90;;;8.92;100.00;99277.16;5020711;28;20035;-83
2024/04/02 04:17:35;;;;;;;20.35;6.15;;;10.20;99.90;;;8.90;100.00;99268.53;5037437;28;20024;-83
2024/04/02 04:20:06;;;;;;;11.18;5.68;;;10.20;99.90;;;8.91;100.00;99261.47;5035557;28;20511;-83
2024/04/02 04:22:47;;;;;;;10.85;6.15;;;10.20;99.90;;;8.91;100.00;99261.47;5052932;28;20044;-82
2024/04/02 04:25:36;;;;;;;11.38;5.90;;;10.20;99.90;;;8.96;100.00;99264.66;5036563;28;20035;-82
2024/04/02 04:28:05;;;;;;;12.63;5.85;;;10.20;99.90;;;8.87;100.00;99263.44;5053967;28;20531;-83
2024/04/02 04:30:39;;;;;;;13.18;5.95;;;10.20;99.90;;;8.86;99.94;99264.41;5054190;28;20104;-82
2024/04/02 04:33:05;;;;;;;13.02;5.38;;;;;;;8.81;99.53;99261.19;5035378;28;20033;-83
2024/04/02 04:35:37;;;;;;;12.48;5.32;;;10.10;99.90;;;8.85;99.23;99252.19;5052737;28;20380;-83
2024/04/02 04:38:42;;;;;;;;;;;;;;;;;;;;;
2024/04/02 04:41:08;;;;;;;10.35;4.22;;;10.10;99.90;;;8.80;98.56;99254.28;5038334;28;20115;-82
2024/04/02 04:43:36;;;;;;;16.60;4.90;;;10.10;99.90;;;8.76;98.71;99253.63;5020458;28;20120;-83
2024/04/02 04:46:25;;;;;;;16.15;4.55;;;10.10;99.90;;;8.76;98.08;99251.00;5039447;28;20469;-82
2024/04/02 04:48:56;;;;;;;10.63;4.38;;;10.10;99.90;;;8.72;97.66;99253.91;5043426;28;20033;-83
2024/04/02 04:51:36;;;;;;;16.75;4.55;;;10.00;99.90;;;8.68;97.72;99265.53;5037437;28;20049;-83
2024/04/02 04:54:14;;;;;;;15.02;4.35;;;10.00;99.90;;;8.66;97.75;99268.28;5038004;28;20035;-82
2024/04/02 04:56:48;;;;;;;10.70;4.40;;;10.00;99.90;;;8.66;97.80;99278.78;5022004;28;20079;-82
2024/04/02 04:59:16;;;;;;;10.18;4.05;;;10.00;99.90;;;8.62;97.52;99272.84;5039362;28;20111;-83
2024/04/02 05:01:45;;;;;;;11.30;4.03;;;9.90;99.90;;;8.65;97.23;99281.47;5038223;28;20040;-83
2024/04/02 05:04:48;;;;;;;13.18;3.63;;;10.00;99.90;;;8.71;97.29;99283.72;5040689;28;20422;-83
2024/04/02 05:08:17;;;;;;;9.18;3.80;;;10.00;99.90;;;8.65;96.70;99287.56;5044674;28;20057;-84
2024/04/02 05:10:48;;;;;;;9.27;3.92;;;10.00;99.90;;;8.65;97.41;99279.69;5019182;28;20090;-85
2024/04/02 05:13:25;;;;;;;14.15;3.78;;;9.90;99.90;;;8.63;96.67;99292.06;5040521;28;20040;-82
2024/04/02 05:15:58;;;;;;;12.98;4.00;;;;;;;8.64;96.99;99285.91;5054268;28;20167;-83
2024/04/02 05:18:27;;;;;;;12.55;3.80;;;10.00;99.90;;;8.61;96.92;99300.03;5056441;28;20029;-83
2024/04/02 05:20:55;;;;;;;7.25;3.60;;;9.90;99.90;;;8.62;96.52;99293.00;5038852;28;20040;-83
2024/04/02 05:23:47;;;;;;;9.85;5.10;;;9.90;99.90;;;8.65;96.82;99310.34;5024181;28;20521;-85
2024/04/02 05:26:17;;;;;;;8.05;3.60;;;;;;;8.67;96.75;99311.09;5041982;28;20099;-83
2024/04/02 05:28:49;;;;;;;12.18;3.80;;;9.90;99.90;;;8.66;96.62;99318.13;5039440;28;20040;-84
2024/04/02 05:31:16;;;;;;;12.75;4.07;;;10.00;99.90;;;8.69;96.75;99314.47;5032643;28;20037;-84
2024/04/02 05:33:45;;;;;;;11.50;4.20;;;10.00;99.90;;;8.70;96.78;99321.38;5040175;28;20039;-83
2024/04/02 05:36:19;;;;;;;7.70;3.40;;;10.00;99.90;;;8.68;96.04;99321.47;5040343;28;20033;-83
2024/04/02 05:38:45;;;;;;;13.20;4.40;;;10.00;99.90;;;8.69;95.74;99327.59;5041423;28;20029;-84
2024/04/02 05:41:19;;;;;;;10.82;3.72;;;10.00;99.90;;;8.72;95.92;99322.97;5040424;28;20080;-83
2024/04/02 05:43:47;;;;;;;9.95;3.70;;;10.00;99.90;;;8.78;95.87;99329.66;5043004;28;20052;-83
2024/04/02 05:46:15;;;;;;;14.60;4.10;;;10.10;99.90;;;8.80;95.42;99331.22;5041135;28;20587;-85
2024/04/02 05:48:47;;;;;;;12.68;3.95;;;10.00;99.90;;;8.72;95.67;99336.09;5053034;28;20101;-82
2024/04/02 05:51:16;;;;;;;9.38;4.07;;;10.00;99.90;;;8.76;95.41;99337.59;5040931;28;20037;-83
2024/04/02 05:53:59;;;;;;;7.68;3.45;;;10.10;99.90;;;8.75;95.26;99335.09;5025368;28;20025;-84
2024/04/02 05:56:25;;;;;;;16.00;4.55;;;10.10;99.90;;;8.82;95.55;99341.66;5058262;28;20104;-84
2024/04/02 05:59:27;;;;;;;13.05;4.25;;;10.10;99.90;;;8.89;95.36;99347.34;5030793;28;20056;-84
2024/04/02 06:02:17;;;;;;;10.60;3.75;;;10.10;99.90;;;8.88;95.08;99332.56;5028468;28;20562;-84
2024/04/02 06:05:06;;;;;;;9.80;3.67;;;10.20;99.90;;;8.89;94.83;99339.47;5031391;28;20056;-83
2024/04/02 06:07:54;;;;;;;14.10;3.90;;;10.20;99.90;;;8.93;94.71;99338.34;5007459;28;20597;-84
2024/04/02 06:10:29;;;;;;;10.90;3.60;;;10.20;99.90;;;8.91;94.33;99332.34;5056078;28;20045;-83
2024/04/02 06:12:55;;;;;;;10.57;3.80;;;10.20;99.90;;;8.91;93.91;99330.56;5038695;28;20115;-83
2024/04/02 06:15:29;;;;;;;7.43;3.47;;;10.20;99.90;;;8.89;93.67;99321.09;5020870;28;20033;-83
2024/04/02 06:17:57;;;;;;;12.10;3.53;;;10.20;99.90;;;8.94;94.09;99324.28;5056466;28;20037;-83
2024/04/02 06:20:23;;;;;;;13.52;4.25;;;10.30;99.90;;;9.00;93.83;99337.03;5038124;28;20025;-83
2024/04/02 06:22:58;;;;;;;13.68;3.95;;;10.30;99.90;;;8.97;93.15;99327.56;5036706;28;20029;-83
2024/04/02 06:25:24;;;;;;;13.13;4.22;;;10.30;99.90;;;9.02;93.43;99328.13;5022460;28;20094;-83
2024/04/02 06:27:58;;;;;;;10.10;3.83;;;10.30;99.90;;;9.04;93.34;99335.91;5035334;28;20507;-83
2024/04/02 06:30:27;;;;;;;11.63;4.05;;;;;;;9.06;92.72;99333.19;5035119;28;20167;-83
2024/04/02 06:32:55;;;;;;;12.80;4.07;;;10.30;99.90;;;9.05;92.49;99329.72;5054765;28;20541;-83
2024/04/02 06:35:29;;;;;;;6.13;4.03;;;10.40;99.90;;;9.01;92.30;99329.06;5037096;28;20541;-84
2024/04/02 06:37:57;;;;;;;6.97;3.67;;;10.40;99.90;;;9.09;92.28;99340.88;5021126;28;20033;-85
2024/04/02 06:40:38;;;;;;;10.98;4.57;;;10.40;99.90;;;9.06;92.52;99339.28;5052541;28;20568;-83
2024/04/02 06:43:47;;;;;;;12.52;4.45;;;10.40;99.90;;;9.09;92.06;99331.19;5034565;28;20079;-84
2024/04/02 06:46:48;;;;;;;9.30;4.15;;;10.40;99.90;;;9.11;91.42;99339.81;4995914;28;20038;-82
2024/04/02 06:52:35;;;;;;;13.45;4.47;;;10.40;99.90;;;9.18;91.99;99348.19;4990452;28;20042;-84
2024/04/02 06:55:04;;;;;;;7.97;4.18;;;10.40;99.90;;;9.20;91.69;99344.53;4988753;28;20032;-85
2024/04/02 06:57:39;;;;;;;8.80;4.28;;;10.50;99.90;;;9.32;91.87;99353.41;4987580;28;20132;-84
2024/04/02 07:00:06;;;;;;;12.43;4.45;;;10.50;99.90;;;9.31;90.84;99358.72;4983522;28;20503;-84
2024/04/02 07:02:58;;;;;;;12.98;4.60;;;10.70;99.90;;;9.42;91.06;99361.56;4997522;28;20031;-86
2024/04/02 07:05:27;;;;;;;9.82;4.80;;;10.70;99.90;;;9.53;90.70;99364.34;4999083;28;20057;-84
2024/04/02 07:08:16;;;;;;;11.02;4.60;;;10.80;99.90;;;9.71;91.18;99350.94;4984892;28;20042;-84
2024/04/02 07:10:45;;;;;;;7.82;3.72;;;;;;;9.73;89.01;99351.69;4972719;28;20168;-85
2024/04/02 07:13:28;;;;;;;9.88;4.30;;;11.00;99.90;;;9.85;88.68;99343.00;4999778;28;20062;-83
2024/04/02 07:16:17;;;;;;;10.88;4.28;;;;;;;9.96;88.52;99344.94;4999685;28;20046;-84
2024/04/02 07:18:46;;;;;;;15.13;4.30;;;11.20;99.90;;;10.06;87.60;99349.50;5001195;28;20120;-83
2024/04/02 07:21:38;;;;;;;11.93;4.90;;;11.30;99.90;;;10.13;87.47;99341.16;4982247;28;20077;-84
2024/04/02 07:24:06;;;;;;;9.18;3.70;;;11.40;99.90;;;10.29;87.27;99349.75;5041303;28;20045;-85
2024/04/02 07:26:55;;;;;;;9.70;3.67;;;11.50;99.90;;;10.35;85.68;99354.59;5040670;28;20056;-84
2024/04/02 07:30:25;;;;;;;15.25;4.05;;;11.60;99.90;;;10.40;85.13;99349.88;5043004;28;20067;-84
2024/04/02 07:33:05;;;;;;;;;;;;;;;;;;;;;
2024/04/02 07:36:07;;;;;;;10.63;4.43;;;11.70;99.90;;;10.40;84.16;99368.28;4993752;28;20107;-84
2024/04/02 07:38:58;;;;;;;12.40;4.03;;;11.70;99.90;;;10.43;84.04;99369.88;4989770;28;20034;-85
2024/04/02 07:41:27;;;;;;;9.38;3.70;;;;;;;10.36;83.67;99379.13;4923150;29;20082;-85
2024/04/02 07:44:18;;;;;;;7.70;3.75;;;11.70;99.90;;;10.41;83.24;99390.16;4920619;29;20131;-85
2024/04/02 07:46:48;;;;;;;11.40;3.22;;;;;;;10.36;82.38;99387.84;4917022;29;20048;-84
2024/04/02 07:49:28;;;;;;;15.35;4.20;;;11.70;99.90;;;10.52;83.10;99377.16;4939970;29;20094;-84
2024/04/02 07:52:08;;;;;;;8.40;3.88;;;11.70;99.90;;;10.52;82.83;99385.06;4918318;29;20040;-85
2024/04/02 07:54:47;;;;;;;10.05;3.95;;;;;;;10.56;81.70;99401.47;4938064;29;20027;-83
2024/04/02 07:57:13;;;;;;;14.90;3.70;;;11.80;99.90;;;10.65;82.48;99404.31;4977379;23;20049;-81
2024/04/02 07:59:42;;;;;;;11.00;3.60;;;11.90;99.90;;;10.82;81.43;99407.56;5046881;28;20040;-80
2024/04/02 08:02:08;;;;;;;11.05;3.85;;;12.20;99.90;;;11.14;82.80;99401.88;5033622;28;20029;-80
2024/04/02 08:04:34;;;;;;;13.07;4.03;;;12.40;99.90;;;11.40;82.43;99408.81;5047934;28;20162;-82
2024/04/02 08:06:59;;;;;;;10.40;3.85;;;12.50;99.90;;;11.50;80.76;99414.25;5047261;28;20116;-81
2024/04/02 08:09:25;;;;;;;7.05;3.28;;;12.60;99.90;;;11.58;79.34;99411.91;5034064;28;20593;-82
2024/04/02 08:11:51;;;;;;;13.02;3.25;;;12.80;99.90;;;11.65;78.91;99421.06;5018251;28;20086;-80
2024/04/02 08:14:21;;;;;;;7.30;2.63;;;12.80;99.90;;;11.49;77.93;99421.31;5023956;28;20021;-80
2024/04/02 08:16:47;;;;;;;9.40;3.85;;;12.70;99.90;;;11.45;78.01;99413.75;5017922;28;20033;-81
2024/04/02 08:19:13;;;;;;;9.30;3.95;;;12.70;99.90;;;11.37;78.56;99424.81;5021522;28;20041;-82
2024/04/02 08:21:39;;;;;;;4.40;2.40;;;12.60;99.90;;;11.28;78.74;99436.84;5039342;28;20021;-80
2024/04/02 08:24:05;;;;;;;10.30;3.35;;;12.60;99.90;;;11.18;77.91;99440.25;5043104;28;20128;-80
2024/04/02 08:26:31;;;;;;;8.35;3.30;;;12.50;99.90;;;11.11;78.22;99473.22;5038427;28;20183;-80
2024/04/02 08:28:57;;;;;;;9.32;4.63;;;12.40;99.90;;;10.98;78.06;99449.53;5021929;28;20021;-80
2024/04/02 08:31:22;;;;;;;9.68;3.45;;;12.30;99.90;;;10.98;79.88;99454.78;5021944;28;20120;-83
2024/04/02 08:33:51;;;;;;;7.53;3.17;;;12.20;99.90;;;10.87;78.46;99453.72;5021538;28;20448;-80
2024/04/02 08:36:16;;;;;;;6.85;3.13;;;12.10;99.90;;;10.60;78.90;99456.41;5024670;28;20043;-81
2024/04/02 08:38:42;;;;;;;8.30;3.53;;;12.00;99.90;;;10.61;79.59;99462.56;5040799;28;20199;-81
2024/04/02 08:41:11;;;;;;;9.35;3.88;;;12.00;99.90;;;10.61;79.82;99467.81;5037781;28;20093;-81
2024/04/02 08:43:44;;;;;;;8.30;3.78;;;11.90;99.90;;;10.59;80.48;99472.34;5017657;28;20087;-81
2024/04/02 08:46:11;;;;;;;7.72;3.53;;;11.80;99.90;;;10.53;80.46;99475.38;5038282;28;20040;-81
2024/04/02 08:48:37;;;;;;;11.07;3.90;;;11.80;99.90;;;10.51;80.53;99487.78;5039062;28;20513;-80
2024/04/02 08:51:29;;;;;;;8.63;3.22;;;11.80;99.90;;;10.46;80.93;99488.94;5022691;28;20025;-83
2024/04/02 08:54:29;;;;;;;10.73;3.70;;;11.80;99.90;;;10.49;81.39;99493.16;4960052;28;20074;-82
2024/04/02 08:57:07;;;;;;;9.20;3.63;;;11.70;99.90;;;10.48;81.81;99509.91;4952981;28;20125;-84
2024/04/02 08:59:46;;;;;;;7.55;3.55;;;11.70;99.90;;;10.46;81.58;99493.34;4925423;29;20049;-83
2024/04/02 09:03:16;;;;;;;7.07;3.25;;;11.70;99.90;;;10.52;81.55;99497.34;4935250;28;20142;-83
2024/04/02 09:05:42;;;;;;;6.13;3.38;;;;;;;10.50;80.26;99505.38;4928994;29;20040;-84
2024/04/02 09:08:48;;;;;;;8.07;3.55;;;11.80;99.90;;;10.65;80.88;99512.25;4878802;29;20393;-83
2024/04/02 09:11:17;;;;;;;10.32;3.30;;;11.90;99.90;;;10.76;80.82;99508.91;4863188;29;20037;-83
2024/04/02 09:14:09;;;;;;;10.73;3.63;;;12.10;99.90;;;10.90;80.58;99517.66;4893612;29;20345;-84
2024/04/02 09:16:38;;;;;;;14.32;4.00;;;;;;;11.04;81.05;99513.16;4843968;29;20045;-83
2024/04/02 09:19:31;;;;;;;6.00;3.35;;;13.70;99.90;;;11.28;80.34;99509.81;4863351;29;20049;-84
2024/04/02 09:21:57;;;;;;;12.95;3.90;;;;;;;11.49;79.81;99528.56;4846054;29;20041;-82
2024/04/02 09:24:31;;;;;;;4.20;2.88;;;12.60;99.90;;;11.59;78.56;99511.13;4862768;29;20552;-83
2024/04/02 09:26:57;;;;;;;19.33;4.07;;;12.80;99.90;;;11.67;78.08;99516.72;4876424;29;20041;-83
2024/04/02 09:29:28;;;;;;;12.75;3.55;;;12.90;99.90;;;11.87;77.98;99517.09;4894110;29;20045;-83
2024/04/02 09:31:59;;;;;;;10.52;3.72;;;;;;;11.92;76.98;99522.91;4876583;29;20036;-84
2024/04/02 09:34:32;;;;;;;13.65;3.60;;;13.10;99.90;;;11.99;76.70;99523.34;4911185;29;20035;-80
2024/04/02 09:37:38;;;;;;;13.38;4.15;;;13.20;99.90;;;12.08;75.91;99520.88;4919301;29;20035;-79
2024/04/02 09:40:09;;;;;;;10.15;3.53;;;13.30;99.90;;;12.25;74.94;99534.66;4922772;29;20050;-81
2024/04/02 09:42:40;;;;;;;8.85;3.22;;;13.40;99.90;;;12.40;75.16;99540.63;4991980;28;20038;-80
2024/04/02 09:45:09;;;;;;;8.85;4.25;;;13.60;99.90;;;12.56;75.29;99535.88;4997110;28;20474;-80
2024/04/02 09:47:36;;;;;;;5.38;3.20;;;13.70;99.90;;;12.65;73.56;99535.19;4982681;28;20596;-81
2024/04/02 09:50:09;;;;;;;11.23;3.53;;;13.80;99.90;;;12.72;74.01;99554.06;4988386;28;20129;-81
2024/04/02 09:52:36;;;;;;;7.30;3.13;;;13.70;99.90;;;12.39;72.24;99555.59;4999288;28;20069;-79
2024/04/02 09:55:08;;;;;;;9.88;3.70;;;13.70;99.90;;;12.44;73.25;99547.34;4984049;28;20526;-79
2024/04/02 09:57:35;;;;;;;8.25;3.42;;;13.70;99.90;;;12.45;73.14;99544.59;4975869;28;20141;-80
2024/04/02 10:00:04;;;;;;;14.88;4.05;;;13.70;99.90;;;12.57;73.07;99548.16;4985528;28;20034;-79
2024/04/02 10:02:33;;;;;;;8.93;3.67;;;13.70;99.90;;;12.56;72.57;99557.00;4991305;28;20034;-81
2024/04/02 10:04:59;;;;;;;14.35;2.92;;;13.80;99.90;;;12.66;73.04;99562.47;4969768;28;20045;-79
2024/04/02 10:07:29;;;;;;;16.65;3.97;;;13.90;99.90;;;12.73;72.66;99567.16;5000449;28;20090;-80
2024/04/02 10:10:00;;;;;;;14.25;3.35;;;13.90;99.90;;;12.75;72.18;99563.59;4983981;28;20717;-80
2024/04/02 10:12:36;;;;;;;9.98;3.42;;;14.00;99.90;;;12.79;72.50;99570.34;4982194;28;20073;-81
2024/04/02 10:15:12;;;;;;;10.52;3.80;;;14.00;99.90;;;12.85;71.79;99560.16;5043728;28;20066;-80
2024/04/02 10:17:41;;;;;;;10.52;3.70;;;14.00;99.90;;;12.77;71.53;99566.97;5016928;28;20047;-80
2024/04/02 10:20:33;;;;;;;7.57;3.58;;;13.90;99.90;;;12.49;70.94;99571.63;5018133;28;20057;-79
2024/04/02 10:23:01;;;;;;;13.73;4.18;;;13.80;99.90;;;12.45;71.31;99576.28;5038671;28;20090;-80
2024/04/02 10:25:31;;;;;;;13.27;3.65;;;13.70;99.90;;;12.39;71.97;99557.41;5017187;28;20033;-79
2024/04/02 10:28:03;;;;;;;12.98;3.75;;;13.70;99.90;;;12.40;72.51;99561.75;5017419;28;20044;-80
2024/04/02 10:30:33;;;;;;;10.30;3.38;;;13.60;99.90;;;12.40;71.85;99556.47;5033364;28;20380;-80
2024/04/02 10:33:16;;;;;;;8.63;3.58;;;13.60;99.90;;;12.39;72.65;99565.31;5015219;28;20034;-81
2024/04/02 10:35:48;;;;;;;15.32;4.00;;;13.60;99.90;;;12.24;71.69;99559.34;5051860;28;20033;-79
2024/04/02 10:38:14;;;;;;;7.93;3.35;;;13.50;99.90;;;12.28;71.54;99564.28;5015824;28;20442;-79
2024/04/02 10:40:48;;;;;;;10.93;2.85;;;13.60;99.90;;;12.45;72.49;99573.63;5021689;28;20632;-79
2024/04/02 10:43:17;;;;;;;13.40;3.80;;;13.60;99.90;;;12.54;71.60;99568.66;5035832;28;20112;-81
2024/04/02 10:45:51;;;;;;;11.18;4.10;;;13.80;99.90;;;12.66;71.24;99575.66;5017872;28;20491;-81
2024/04/02 10:48:19;;;;;;;5.80;3.47;;;13.80;99.90;;;12.63;71.85;99574.06;5025366;28;20056;-81
2024/04/02 10:50:45;;;;;;;10.18;4.10;;;13.90;99.90;;;12.74;71.62;99570.66;5016881;28;20124;-79
2024/04/02 10:53:22;;;;;;;11.05;3.60;;;14.00;99.90;;;12.81;71.30;99571.91;5018141;28;20036;-81
2024/04/02 10:55:51;;;;;;;8.38;3.45;;;13.90;99.90;;;12.75;70.57;99577.63;5018215;28;20040;-80
2024/04/02 10:58:21;;;;;;;10.73;3.90;;;13.90;99.90;;;12.71;71.18;99576.16;5033591;28;20033;-80
2024/04/02 11:00:49;;;;;;;7.72;3.45;;;13.90;99.90;;;12.74;71.59;99578.56;5016657;28;20021;-80
2024/04/02 11:03:27;;;;;;;12.50;2.90;;;13.90;99.90;;;12.69;70.28;99588.63;5032737;28;20388;-81
2024/04/02 11:05:52;;;;;;;12.50;3.45;;;13.90;99.90;;;12.65;70.44;99585.38;5016871;28;20028;-80
2024/04/02 11:08:18;;;;;;;7.15;2.92;;;13.90;99.90;;;12.73;70.22;99582.19;5034238;28;20079;-79
2024/04/02 11:10:58;;;;;;;13.68;2.88;;;13.90;99.90;;;12.62;70.02;99582.13;5034254;28;20025;-80
2024/04/02 11:13:26;;;;;;;11.27;3.15;;;13.80;99.90;;;12.52;69.73;99608.34;5035065;28;20650;-80
2024/04/02 11:15:58;;;;;;;6.95;2.40;;;13.70;99.90;;;12.43;69.91;99601.94;5033936;28;20499;-79
2024/04/02 11:18:25;;;;;;;10.40;2.80;;;13.70;99.90;;;12.46;69.96;99593.81;5016888;28;20110;-81
2024/04/02 11:21:00;;;;;;;7.38;3.13;;;13.80;99.90;;;12.64;70.56;99596.91;5034413;28;20033;-79
2024/04/02 11:26:23;;;;;;;8.93;3.45;;;14.00;99.90;;;12.84;70.18;99603.34;5049552;28;20044;-80